createdAt,value
2018-07-14T00:00:46.655Z,9.23
2018-07-14T00:03:15.292Z,9.50
2018-07-14T00:05:44.030Z,9.77
2018-07-14T00:08:12.796Z,9.23
2018-07-14T00:10:41.423Z,10.27
2018-07-14T00:13:10.060Z,11.43
2018-07-14T00:15:38.765Z,8.93
2018-07-14T00:18:07.372Z,8.60
2018-07-14T00:20:35.956Z,9.40
2018-07-14T00:23:04.591Z,8.47
2018-07-14T00:25:38.519Z,8.27
2018-07-14T00:28:07.160Z,8.83
2018-07-14T00:31:38.274Z,8.40
2018-07-14T00:34:07.020Z,9.00
2018-07-14T00:36:35.673Z,8.70
2018-07-14T00:39:05.103Z,8.83
2018-07-14T00:41:33.717Z,8.93
2018-07-14T00:44:02.351Z,8.77
2018-07-14T00:46:31.062Z,8.77
2018-07-14T00:48:59.646Z,9.43
2018-07-14T00:51:28.398Z,9.47
2018-07-14T00:53:57.455Z,9.00
2018-07-14T00:56:26.220Z,9.73
2018-07-14T00:58:54.923Z,9.13
2018-07-14T01:01:23.526Z,9.17
2018-07-14T01:03:52.148Z,10.03
2018-07-14T01:06:20.903Z,9.13
2018-07-14T01:08:49.559Z,9.17
2018-07-14T01:11:18.257Z,10.47
2018-07-14T01:13:46.950Z,11.20
2018-07-14T01:16:15.571Z,10.50
2018-07-14T01:18:44.175Z,10.43
2018-07-14T01:21:12.892Z,12.97
2018-07-14T01:23:41.509Z,10.57
2018-07-14T01:26:10.120Z,11.03
2018-07-14T01:28:38.772Z,10.20
2018-07-14T01:31:07.579Z,10.83
2018-07-14T01:33:36.222Z,11.23
2018-07-14T01:36:04.908Z,10.47
2018-07-14T01:38:33.551Z,12.23
2018-07-14T01:41:02.218Z,11.33
2018-07-14T01:43:31.212Z,11.10
2018-07-14T01:45:59.871Z,11.63
2018-07-14T01:48:28.609Z,10.83
2018-07-14T01:50:57.207Z,11.20
2018-07-14T01:53:25.966Z,11.20
2018-07-14T01:55:54.774Z,12.30
2018-07-14T01:58:23.537Z,11.63
2018-07-14T02:00:52.196Z,10.87
2018-07-14T02:03:20.891Z,12.03
2018-07-14T02:05:49.525Z,10.67
2018-07-14T02:08:18.165Z,9.87
2018-07-14T02:10:46.893Z,10.70
2018-07-14T02:13:15.647Z,11.10
2018-07-14T02:15:44.479Z,10.47
2018-07-14T02:18:13.238Z,10.63
2018-07-14T02:20:41.900Z,10.63
2018-07-14T02:23:10.539Z,10.77
2018-07-14T02:25:39.146Z,10.53
2018-07-14T02:28:07.879Z,10.07
2018-07-14T02:30:36.601Z,11.43
2018-07-14T02:33:05.301Z,10.27
2018-07-14T02:35:34.022Z,9.33
2018-07-14T02:38:02.590Z,9.83
2018-07-14T02:40:31.299Z,10.97
2018-07-14T02:42:59.971Z,11.00
2018-07-14T02:45:28.675Z,9.63
2018-07-14T02:47:57.324Z,10.00
2018-07-14T02:50:26.069Z,9.63
2018-07-14T02:52:54.991Z,9.07
2018-07-14T02:55:23.590Z,9.60
2018-07-14T02:57:52.414Z,9.20
2018-07-14T03:00:21.039Z,9.67
2018-07-14T03:02:49.594Z,9.30
2018-07-14T03:05:18.133Z,9.83
2018-07-14T03:07:47.089Z,9.37
2018-07-14T03:10:15.711Z,9.40
2018-07-14T03:12:44.464Z,9.67
2018-07-14T03:15:13.032Z,9.20
2018-07-14T03:17:41.680Z,9.70
2018-07-14T03:20:10.309Z,9.57
2018-07-14T03:22:39.028Z,9.67
2018-07-14T03:25:07.712Z,8.97
2018-07-14T03:27:36.337Z,9.27
2018-07-14T03:30:05.031Z,9.40
2018-07-14T03:32:33.635Z,9.30
2018-07-14T03:35:02.455Z,10.00
2018-07-14T03:37:31.111Z,9.77
2018-07-14T03:39:59.699Z,9.67
2018-07-14T03:42:28.306Z,9.60
2018-07-14T03:44:56.915Z,9.47
2018-07-14T03:47:25.620Z,10.30
2018-07-14T03:49:54.266Z,9.93
2018-07-14T03:52:22.936Z,9.23
2018-07-14T03:54:51.584Z,9.60
2018-07-14T03:57:20.232Z,9.60
2018-07-14T03:59:49.003Z,9.90
2018-07-14T04:02:17.811Z,10.67
2018-07-14T04:04:46.477Z,10.10
2018-07-14T04:07:15.147Z,9.83
2018-07-14T04:09:43.990Z,9.97
2018-07-14T04:12:12.982Z,9.93
2018-07-14T04:14:41.835Z,10.37
2018-07-14T04:17:10.610Z,9.57
2018-07-14T04:19:39.371Z,10.30
2018-07-14T04:22:07.963Z,9.40
2018-07-14T04:24:36.874Z,10.10
2018-07-14T04:27:05.526Z,9.83
2018-07-14T04:29:34.368Z,10.03
2018-07-14T04:32:03.038Z,9.83
2018-07-14T04:34:31.726Z,9.80
2018-07-14T04:37:00.492Z,9.50
2018-07-14T04:39:29.109Z,9.50
2018-07-14T04:41:57.800Z,9.83
2018-07-14T04:44:26.600Z,9.30
2018-07-14T04:46:55.437Z,9.60
2018-07-14T04:49:24.118Z,9.83
2018-07-14T04:51:52.801Z,9.17
2018-07-14T04:54:21.523Z,9.47
2018-07-14T04:56:50.092Z,9.53
2018-07-14T04:59:18.697Z,9.17
2018-07-14T05:01:47.739Z,8.60
2018-07-14T05:04:16.404Z,9.20
2018-07-14T05:06:45.001Z,8.87
2018-07-14T05:09:13.775Z,8.53
2018-07-14T05:11:42.377Z,8.30
2018-07-14T05:14:10.979Z,7.57
2018-07-14T05:16:39.707Z,8.17
2018-07-14T05:19:08.366Z,7.70
2018-07-14T05:21:37.058Z,7.50
2018-07-14T05:24:05.784Z,7.70
2018-07-14T05:26:34.549Z,7.93
2018-07-14T05:29:03.183Z,7.80
2018-07-14T05:31:31.910Z,7.83
2018-07-14T05:34:00.542Z,7.67
2018-07-14T05:36:29.141Z,7.40
2018-07-14T05:38:57.791Z,7.83
2018-07-14T05:41:26.402Z,7.77
2018-07-14T05:43:55.320Z,7.60
2018-07-14T05:46:23.922Z,7.37
2018-07-14T05:48:52.581Z,6.93
2018-07-14T05:51:21.244Z,6.90
2018-07-14T05:53:49.866Z,6.30
2018-07-14T05:56:18.552Z,6.50
2018-07-14T05:58:47.334Z,6.37
2018-07-14T06:01:16.219Z,6.60
2018-07-14T06:03:45.110Z,6.03
2018-07-14T06:06:13.987Z,6.00
2018-07-14T06:08:42.760Z,6.40
2018-07-14T06:11:11.448Z,6.00
2018-07-14T06:13:40.053Z,6.03
2018-07-14T06:16:08.709Z,5.73
2018-07-14T06:18:37.554Z,5.30
2018-07-14T06:21:06.229Z,5.00
2018-07-14T06:23:34.967Z,5.87
2018-07-14T06:26:03.740Z,4.50
2018-07-14T06:28:32.412Z,5.10
2018-07-14T06:31:00.959Z,4.50
2018-07-14T06:33:29.593Z,4.93
2018-07-14T06:35:58.232Z,5.70
2018-07-14T06:38:26.939Z,4.90
2018-07-14T06:40:55.570Z,5.53
2018-07-14T06:43:24.223Z,5.03
2018-07-14T06:45:52.902Z,5.67
2018-07-14T06:48:21.461Z,5.43
2018-07-14T06:50:50.108Z,4.60
2018-07-14T06:53:18.737Z,5.10
2018-07-14T06:55:47.752Z,4.37
2018-07-14T06:58:16.462Z,4.40
2018-07-14T07:00:45.033Z,4.57
2018-07-14T07:03:13.778Z,6.20
2018-07-14T07:05:42.363Z,4.10
2018-07-14T07:08:10.999Z,4.10
2018-07-14T07:10:39.839Z,3.77
2018-07-14T07:13:08.440Z,3.87
2018-07-14T07:15:37.109Z,3.77
2018-07-14T07:18:05.753Z,4.87
2018-07-14T07:20:34.410Z,3.77
2018-07-14T07:23:03.179Z,4.03
2018-07-14T07:25:31.943Z,4.10
2018-07-14T07:28:00.596Z,4.37
2018-07-14T07:30:29.266Z,3.80
2018-07-14T07:32:58.073Z,3.87
2018-07-14T07:35:26.849Z,4.13
2018-07-14T07:37:55.457Z,4.03
2018-07-14T07:40:24.024Z,4.23
2018-07-14T07:42:52.686Z,3.73
2018-07-14T07:45:21.401Z,3.80
2018-07-14T07:47:50.066Z,3.90
2018-07-14T07:50:18.663Z,3.50
2018-07-14T07:52:47.378Z,4.13
2018-07-14T07:55:16.115Z,3.17
2018-07-14T07:57:44.872Z,3.20
2018-07-14T08:00:13.662Z,5.67
2018-07-14T08:02:42.351Z,3.07
2018-07-14T08:05:11.016Z,3.30
2018-07-14T08:07:39.914Z,3.33
2018-07-14T08:10:08.541Z,3.33
2018-07-14T08:12:37.332Z,3.33
2018-07-14T08:15:06.005Z,3.40
2018-07-14T08:17:34.695Z,4.07
2018-07-14T08:23:34.501Z,3.10
2018-07-14T08:26:03.177Z,3.93
2018-07-14T08:28:31.872Z,3.40
2018-07-14T08:31:00.440Z,3.30
2018-07-14T08:33:29.277Z,3.07
2018-07-14T08:35:57.964Z,3.00
2018-07-14T08:38:26.646Z,2.97
2018-07-14T08:40:55.376Z,2.97
2018-07-14T08:43:24.063Z,2.97
2018-07-14T08:45:52.782Z,3.23
2018-07-14T08:48:21.573Z,4.87
2018-07-14T08:50:50.224Z,2.90
2018-07-14T08:53:18.925Z,3.53
2018-07-14T08:55:48.047Z,2.90
2018-07-14T08:58:16.717Z,2.77
2018-07-14T09:00:45.352Z,2.53
2018-07-14T09:03:14.032Z,2.80
2018-07-14T09:05:42.663Z,3.53
2018-07-14T09:08:11.561Z,2.80
2018-07-14T09:10:40.273Z,2.80
2018-07-14T09:13:08.991Z,3.13
2018-07-14T09:15:37.614Z,2.60
2018-07-14T09:18:06.337Z,3.17
2018-07-14T09:20:35.097Z,4.43
2018-07-14T09:23:03.738Z,2.80
2018-07-14T09:25:32.419Z,2.40
2018-07-14T09:28:01.112Z,2.43
2018-07-14T09:30:29.776Z,2.10
2018-07-14T09:32:58.421Z,2.90
2018-07-14T09:35:27.211Z,2.80
2018-07-14T09:37:56.010Z,2.17
2018-07-14T09:40:24.626Z,2.80
2018-07-14T09:42:53.550Z,2.20
2018-07-14T09:45:22.254Z,2.10
2018-07-14T09:47:50.979Z,1.90
2018-07-14T09:50:19.599Z,2.40
2018-07-14T09:52:48.261Z,2.03
2018-07-14T09:55:16.936Z,5.13
2018-07-14T09:57:45.698Z,2.07
2018-07-14T10:00:19.451Z,2.03
2018-07-14T10:02:48.088Z,2.20
2018-07-14T10:05:16.742Z,2.97
2018-07-14T10:07:45.488Z,3.50
2018-07-14T10:10:14.460Z,2.03
2018-07-14T10:12:43.141Z,1.90
2018-07-14T10:15:12.039Z,2.37
2018-07-14T10:17:40.810Z,2.00
2018-07-14T10:20:09.355Z,2.97
2018-07-14T10:22:38.042Z,2.30
2018-07-14T10:25:06.998Z,2.00
2018-07-14T10:27:35.877Z,1.90
2018-07-14T10:30:04.502Z,3.03
2018-07-14T10:32:33.170Z,2.07
2018-07-14T10:35:01.864Z,2.27
2018-07-14T10:37:30.607Z,2.70
2018-07-14T10:39:59.337Z,2.20
2018-07-14T10:42:28.113Z,3.47
2018-07-14T10:44:56.821Z,2.00
2018-07-14T10:47:25.513Z,2.23
2018-07-14T10:49:54.163Z,2.17
2018-07-14T10:52:22.870Z,2.30
2018-07-14T10:54:51.524Z,2.10
2018-07-14T10:57:20.367Z,2.57
2018-07-14T10:59:49.093Z,2.77
2018-07-14T11:02:17.774Z,2.30
2018-07-14T11:04:46.509Z,2.23
2018-07-14T11:07:15.198Z,2.70
2018-07-14T11:09:43.828Z,2.23
2018-07-14T11:12:12.594Z,2.47
2018-07-14T11:14:41.304Z,2.57
2018-07-14T11:17:09.990Z,2.80
2018-07-14T11:19:38.641Z,2.50
2018-07-14T11:22:07.406Z,2.53
2018-07-14T11:24:36.094Z,2.77
2018-07-14T11:27:04.750Z,3.00
2018-07-14T11:29:33.568Z,2.77
2018-07-14T11:32:02.809Z,2.53
2018-07-14T11:34:31.470Z,3.03
2018-07-14T11:37:00.128Z,5.37
2018-07-14T11:39:28.806Z,3.97
2018-07-14T11:41:57.448Z,4.03
2018-07-14T11:44:26.412Z,7.30
2018-07-14T11:46:55.095Z,4.30
2018-07-14T11:49:23.854Z,3.50
2018-07-14T11:51:52.542Z,3.63
2018-07-14T11:54:21.411Z,3.43
2018-07-14T11:56:50.174Z,3.40
2018-07-14T11:59:18.950Z,3.40
2018-07-14T12:01:47.719Z,3.53
2018-07-14T12:04:16.629Z,3.70
2018-07-14T12:06:45.318Z,3.67
2018-07-14T12:09:13.979Z,3.87
2018-07-14T12:11:42.588Z,3.73
2018-07-14T12:14:11.519Z,4.10
2018-07-14T12:16:40.313Z,4.00
2018-07-14T12:19:09.227Z,4.13
2018-07-14T12:21:37.889Z,4.03
2018-07-14T12:24:06.653Z,4.30
2018-07-14T12:26:35.359Z,6.13
2018-07-14T12:29:04.067Z,4.57
2018-07-14T12:31:32.823Z,3.77
2018-07-14T12:34:01.532Z,4.20
2018-07-14T12:36:30.311Z,4.20
2018-07-14T12:38:58.999Z,4.27
2018-07-14T12:41:27.742Z,3.90
2018-07-14T12:43:56.395Z,5.60
2018-07-14T12:46:25.104Z,4.17
2018-07-14T12:48:53.909Z,5.53
2018-07-14T12:51:22.561Z,3.93
2018-07-14T12:53:51.472Z,4.27
2018-07-14T12:56:20.113Z,6.57
2018-07-14T12:58:49.033Z,4.70
2018-07-14T13:01:17.648Z,4.80
2018-07-14T13:03:46.297Z,4.90
2018-07-14T13:06:15.003Z,4.23
2018-07-14T13:08:43.640Z,6.17
2018-07-14T13:11:12.280Z,4.40
2018-07-14T13:13:41.013Z,4.10
2018-07-14T13:16:09.698Z,4.30
2018-07-14T13:18:38.323Z,3.77
2018-07-14T13:21:07.134Z,3.90
2018-07-14T13:23:36.203Z,3.67
2018-07-14T13:26:04.819Z,4.20
2018-07-14T13:28:33.571Z,4.33
2018-07-14T13:31:02.360Z,4.00
2018-07-14T13:33:31.157Z,4.30
2018-07-14T13:35:59.880Z,5.70
2018-07-14T13:38:28.462Z,4.20
2018-07-14T13:40:57.069Z,4.20
2018-07-14T13:43:25.713Z,8.77
2018-07-14T13:45:54.421Z,4.33
2018-07-14T13:48:23.070Z,4.37
2018-07-14T13:50:51.785Z,3.57
2018-07-14T13:53:20.533Z,2.93
2018-07-14T13:55:49.307Z,4.03
2018-07-14T13:58:17.974Z,3.50
2018-07-14T14:00:46.701Z,3.50
2018-07-14T14:03:15.380Z,3.50
2018-07-14T14:05:44.068Z,3.43
2018-07-14T14:08:12.797Z,3.03
2018-07-14T14:10:41.472Z,3.00
2018-07-14T14:13:10.262Z,3.50
2018-07-14T14:15:39.313Z,3.50
2018-07-14T14:18:07.984Z,3.43
2018-07-14T14:20:36.643Z,3.80
2018-07-14T14:23:05.247Z,4.73
2018-07-14T14:25:34.181Z,3.20
2018-07-14T14:28:02.883Z,3.30
2018-07-14T14:30:31.551Z,3.40
2018-07-14T14:33:00.252Z,3.33
2018-07-14T14:35:29.019Z,3.13
2018-07-14T14:37:57.773Z,4.63
2018-07-14T14:40:26.579Z,6.17
2018-07-14T14:42:55.242Z,3.97
2018-07-14T14:45:23.850Z,3.47
2018-07-14T14:47:52.675Z,3.50
2018-07-14T14:50:21.532Z,3.80
2018-07-14T14:52:50.326Z,3.77
2018-07-14T14:55:19.043Z,3.33
2018-07-14T14:57:47.643Z,3.70
2018-07-14T15:00:16.348Z,3.70
2018-07-14T15:02:45.505Z,3.17
2018-07-14T15:05:14.157Z,3.37
2018-07-14T15:07:43.071Z,4.47
2018-07-14T15:10:11.785Z,2.90
2018-07-14T15:12:40.397Z,3.10
2018-07-14T15:15:09.193Z,3.20
2018-07-14T15:17:38.275Z,3.07
2018-07-14T15:20:07.074Z,3.53
2018-07-14T15:22:35.866Z,3.27
2018-07-14T15:25:04.667Z,3.10
2018-07-14T15:27:33.575Z,3.23
2018-07-14T15:30:02.313Z,3.20
2018-07-14T15:32:31.077Z,4.10
2018-07-14T15:34:59.813Z,2.90
2018-07-14T15:37:28.410Z,3.83
2018-07-14T15:39:57.049Z,3.93
2018-07-14T15:42:25.763Z,3.50
2018-07-14T15:44:54.339Z,3.73
2018-07-14T15:47:23.026Z,3.43
2018-07-14T15:49:51.900Z,3.20
2018-07-14T15:52:20.585Z,3.63
2018-07-14T15:54:49.189Z,3.90
2018-07-14T15:57:17.861Z,3.60
2018-07-14T15:59:46.735Z,3.40
2018-07-14T16:02:15.380Z,3.07
2018-07-14T16:04:44.077Z,4.57
2018-07-14T16:07:12.984Z,3.33
2018-07-14T16:09:41.591Z,3.33
2018-07-14T16:12:10.404Z,3.40
2018-07-14T16:14:41.490Z,3.27
2018-07-14T16:17:10.575Z,3.03
2018-07-14T16:19:39.285Z,3.33
2018-07-14T16:22:08.290Z,3.90
2018-07-14T16:24:36.967Z,3.70
2018-07-14T16:27:05.690Z,3.40
2018-07-14T16:29:34.376Z,8.60
2018-07-14T16:32:03.174Z,3.00
2018-07-14T16:34:31.814Z,3.20
2018-07-14T16:37:00.544Z,3.47
2018-07-14T16:39:29.113Z,5.90
2018-07-14T16:41:57.811Z,3.40
2018-07-14T16:44:26.696Z,3.40
2018-07-14T16:46:55.426Z,2.93
2018-07-14T16:49:24.161Z,4.80
2018-07-14T16:51:53.315Z,3.40
2018-07-14T16:54:22.114Z,3.20
2018-07-14T16:56:51.165Z,3.40
2018-07-14T16:59:19.836Z,3.30
2018-07-14T17:01:48.840Z,4.63
2018-07-14T17:04:17.557Z,3.07
2018-07-14T17:06:46.215Z,3.60
2018-07-14T17:09:14.891Z,3.10
2018-07-14T17:11:43.614Z,3.63
2018-07-14T17:14:12.308Z,3.80
2018-07-14T17:16:41.147Z,3.10
2018-07-14T17:19:09.951Z,3.23
2018-07-14T17:21:38.570Z,4.67
2018-07-14T17:24:07.226Z,3.40
2018-07-14T17:26:35.970Z,3.47
2018-07-14T17:29:04.771Z,5.10
2018-07-14T17:31:33.653Z,6.23
2018-07-14T17:34:02.325Z,5.10
2018-07-14T17:36:30.955Z,8.33
2018-07-14T17:38:59.602Z,3.67
2018-07-14T17:41:28.384Z,3.33
2018-07-14T17:43:57.145Z,3.63
2018-07-14T17:46:25.821Z,3.80
2018-07-14T17:48:54.511Z,3.30
2018-07-14T17:51:23.275Z,4.13
2018-07-14T17:53:52.092Z,3.97
2018-07-14T17:56:20.700Z,3.90
2018-07-14T17:58:49.640Z,4.77
2018-07-14T18:01:18.351Z,3.80
2018-07-14T18:03:46.939Z,3.93
2018-07-14T18:06:15.660Z,3.50
2018-07-14T18:08:44.312Z,3.57
2018-07-14T18:11:12.959Z,4.00
2018-07-14T18:14:11.839Z,4.00
2018-07-14T18:16:40.798Z,3.87
2018-07-14T18:19:09.423Z,4.30
2018-07-14T18:21:38.136Z,4.10
2018-07-14T18:24:06.919Z,4.73
2018-07-14T18:26:35.591Z,4.00
2018-07-14T18:29:04.253Z,4.20
2018-07-14T18:31:32.912Z,4.80
2018-07-14T18:34:01.565Z,4.30
2018-07-14T18:36:30.132Z,5.50
2018-07-14T18:38:58.749Z,4.10
2018-07-14T18:41:27.331Z,4.10
2018-07-14T18:43:56.034Z,5.00
2018-07-14T18:46:24.617Z,7.63
2018-07-14T18:51:52.399Z,4.63
2018-07-14T18:54:21.095Z,3.97
2018-07-14T18:56:49.738Z,4.50
2018-07-14T18:59:18.440Z,4.43
2018-07-14T19:01:47.155Z,4.83
2018-07-14T19:04:15.922Z,4.63
2018-07-14T19:06:44.610Z,5.00
2018-07-14T19:09:13.321Z,4.87
2018-07-14T19:11:42.033Z,5.80
2018-07-14T19:14:10.673Z,4.33
2018-07-14T19:16:39.344Z,4.67
2018-07-14T19:19:07.986Z,5.07
2018-07-14T19:21:36.659Z,4.87
2018-07-14T19:24:05.490Z,6.57
2018-07-14T19:26:34.263Z,5.27
2018-07-14T19:29:03.028Z,5.30
2018-07-14T19:31:31.696Z,6.40
2018-07-14T19:34:00.395Z,4.57
2018-07-14T19:36:29.213Z,6.10
2018-07-14T19:38:57.858Z,6.30
2018-07-14T19:41:26.666Z,7.30
2018-07-14T19:43:55.509Z,5.17
2018-07-14T19:46:24.142Z,5.07
2018-07-14T19:48:52.929Z,5.03
2018-07-14T19:51:21.631Z,4.90
2018-07-14T19:53:50.383Z,4.97
2018-07-14T19:56:19.528Z,4.73
2018-07-14T19:58:48.362Z,4.90
2018-07-14T20:01:16.983Z,4.60
2018-07-14T20:03:45.565Z,4.97
2018-07-14T20:06:14.425Z,5.27
2018-07-14T20:08:43.039Z,4.67
2018-07-14T20:11:11.816Z,4.80
2018-07-14T20:13:40.505Z,4.50
2018-07-14T20:16:09.995Z,5.33
2018-07-14T20:18:39.012Z,7.00
2018-07-14T20:21:07.639Z,8.40
2018-07-14T20:23:36.654Z,4.67
2018-07-14T20:26:05.343Z,4.87
2018-07-14T20:28:34.067Z,5.37
2018-07-14T20:31:02.734Z,4.40
2018-07-14T20:33:31.516Z,5.33
2018-07-14T20:36:00.140Z,4.90
2018-07-14T20:38:29.122Z,5.50
2018-07-14T20:40:57.866Z,5.97
2018-07-14T20:43:26.474Z,7.70
2018-07-14T20:45:56.488Z,5.20
2018-07-14T20:48:25.180Z,4.77
2018-07-14T20:50:53.835Z,4.70
2018-07-14T20:53:23.448Z,6.80
2018-07-14T20:55:52.523Z,7.77
2018-07-14T20:58:21.171Z,5.33
2018-07-14T21:00:49.936Z,5.03
2018-07-14T21:03:18.564Z,4.57
2018-07-14T21:05:47.269Z,5.03
2018-07-14T21:08:15.903Z,13.00
2018-07-14T21:10:44.590Z,7.93
2018-07-14T21:13:13.232Z,5.90
2018-07-14T21:15:42.888Z,6.13
2018-07-14T21:18:11.519Z,7.23
2018-07-14T21:20:40.218Z,7.47
2018-07-14T21:23:08.822Z,5.83
2018-07-14T21:25:37.500Z,4.70
2018-07-14T21:28:06.249Z,6.10
2018-07-14T21:30:34.919Z,5.70
2018-07-14T21:33:03.719Z,5.70
2018-07-14T21:35:32.455Z,8.40
2018-07-14T21:38:01.134Z,7.10
2018-07-14T21:40:29.804Z,8.13
2018-07-14T21:42:58.429Z,6.17
2018-07-14T21:45:27.117Z,9.23
2018-07-14T21:47:56.059Z,7.73
2018-07-14T21:50:24.794Z,9.43
2018-07-14T21:52:53.352Z,6.43
2018-07-14T21:55:22.058Z,6.80
2018-07-14T21:57:50.855Z,6.67
2018-07-14T22:00:33.596Z,5.70
2018-07-14T22:03:04.667Z,6.40
2018-07-14T22:05:33.402Z,6.97
2018-07-14T22:08:02.128Z,5.77
2018-07-14T22:10:30.766Z,6.00
2018-07-14T22:12:59.394Z,7.23
2018-07-14T22:15:28.095Z,5.83
2018-07-14T22:17:56.838Z,6.00
2018-07-14T22:20:25.659Z,6.03
2018-07-14T22:22:54.578Z,6.97
2018-07-14T22:25:23.408Z,9.23
2018-07-14T22:27:52.115Z,6.40
2018-07-14T22:30:20.966Z,6.57
2018-07-14T22:32:49.709Z,6.00
2018-07-14T22:35:18.568Z,8.80
2018-07-14T22:37:47.144Z,6.43
2018-07-14T22:40:15.843Z,8.40
2018-07-14T22:42:44.514Z,7.13
2018-07-14T22:45:13.321Z,7.70
2018-07-14T22:47:42.104Z,6.40
2018-07-14T22:50:10.924Z,6.50
2018-07-14T22:52:39.810Z,7.00
2018-07-14T22:55:08.691Z,7.00
2018-07-14T22:57:37.389Z,7.03
2018-07-14T23:00:07.116Z,6.83
2018-07-14T23:02:35.810Z,7.07
2018-07-14T23:05:04.451Z,6.57
2018-07-14T23:07:33.099Z,7.43
2018-07-14T23:10:01.791Z,7.13
2018-07-14T23:12:30.583Z,6.43
2018-07-14T23:14:59.321Z,7.80
2018-07-14T23:17:27.943Z,8.87
2018-07-14T23:19:56.879Z,7.10
2018-07-14T23:22:25.545Z,7.43
2018-07-14T23:24:54.256Z,6.90
2018-07-14T23:27:22.943Z,6.73
2018-07-14T23:29:51.572Z,7.30
2018-07-14T23:32:20.287Z,8.60
2018-07-14T23:34:49.020Z,7.30
2018-07-14T23:37:17.658Z,6.87
2018-07-14T23:39:46.430Z,7.77
2018-07-14T23:42:15.114Z,7.73
2018-07-14T23:44:43.824Z,7.63
2018-07-14T23:47:12.595Z,7.43
2018-07-14T23:49:41.278Z,8.37
2018-07-14T23:52:09.888Z,7.57
2018-07-14T23:54:38.787Z,9.10
2018-07-14T23:57:07.702Z,8.30
2018-07-14T23:59:36.548Z,8.00
